KMNV

Details ICAO KMNV
Name MONROE CO
Region United States
Timezone America/New_York (UTC-4.0)
Plans Departing 4
Arriving 3
Stats Elevation 1,031 ft / 314 m (AMSL)
Location 35.545296° -84.380311°
Runways 1
Magnetic Variation 5.431° W
Sunrise 2018-05-23 10:28:49 UTC / 2018-05-23 06:28:49 Local
Sunset 2018-05-24 00:42:37 UTC / 2018-05-23 20:42:37 Local
Advertisement - Login to hide

Runways

ID Width Length Bearing (true) Bearing (mag) Surface Threshold Offset Overrun Length
05 75 ft / 23 m 3,502 ft / 1,067 m 43.67° 49.10° Asphalt 0 ft / 0 m 0 ft / 0 m
23 75 ft / 23 m 3,502 ft / 1,067 m 223.67° 229.10° Asphalt 0 ft / 0 m 0 ft / 0 m

Map

Weather


0- 5 10 15 20 25 30 35+ Temperature / ° C

Clouds and Precipitation
Forecast for 2018-05-23 06:00 UTC. Updated 3 hours ago

Ground ~20,000 ft ~40,000 ft Winds

METAR

KMNV 230735Z AUTO 00000KT 5SM BR CLR 18/18 A3005 RMK A01

TAF

Not found

Frequencies

Recorded 118.47 MHz AWOS 3
Approach 123.90 MHz KNOXVILLE APP/DEP
Unicom 123.00 MHz CTAF/UNICOM
Warning: Do not use this data for real-world aviation or navigation. No guarantee of current accuracy is given.